Time;durP1;ratioP1;P1;durP2;ratioP2;P2;SDS_P1;SDS_P2;PMS_P1;PMS_P2;Temp;Humidity;BMP_temperature;BMP_pressure;BME280_temperature;BME280_humidity;BME280_pressure;Samples;Min_cycle;Max_cycle;Signal;HPM_P1;HPM_P2
2021/04/21 00:01:19;;;;;;;6.60;5.53;;;17.50;56.30;;;;;;4992568;28;20073;-38
2021/04/21 00:03:46;;;;;;;6.13;4.90;;;17.40;56.20;;;;;;4992284;28;20065;-38
2021/04/21 00:06:14;;;;;;;6.80;5.90;;;17.60;56.30;;;;;;4992561;28;20679;-38
2021/04/21 00:08:40;;;;;;;6.75;5.28;;;17.30;56.20;;;;;;4992206;28;20032;-39
2021/04/21 00:11:06;;;;;;;7.47;5.47;;;17.70;56.40;;;;;;4992255;28;20018;-38
2021/04/21 00:13:32;;;;;;;7.00;5.63;;;17.40;56.30;;;;;;4992519;28;20380;-38
2021/04/21 00:15:58;;;;;;;7.03;5.88;;;17.40;56.20;;;;;;4992135;28;20228;-39
2021/04/21 00:18:26;;;;;;;6.80;5.68;;;17.70;56.50;;;;;;4992453;28;20046;-38
2021/04/21 00:20:56;;;;;;;5.68;4.97;;;17.30;56.20;;;;;;4992359;28;20027;-38
2021/04/21 00:23:22;;;;;;;9.27;5.40;;;17.30;56.20;;;;;;4992130;28;20030;-38
2021/04/21 00:25:52;;;;;;;6.53;5.55;;;17.30;56.20;;;;;;4992053;28;20038;-38
2021/04/21 00:28:19;;;;;;;6.13;5.35;;;18.00;56.60;;;;;;4992373;28;20038;-38
2021/04/21 00:30:45;;;;;;;6.30;5.35;;;17.20;56.20;;;;;;4992380;28;20099;-38
2021/04/21 00:33:15;;;;;;;8.20;6.53;;;17.40;56.30;;;;;;4992357;28;20019;-38
2021/04/21 00:35:43;;;;;;;7.75;5.60;;;17.30;56.20;;;;;;4992308;28;20089;-38
2021/04/21 00:38:12;;;;;;;7.00;5.72;;;17.20;56.20;;;;;;4992123;28;20107;-38
2021/04/21 00:40:44;;;;;;;7.20;5.93;;;17.20;56.20;;;;;;4992468;28;20052;-38
2021/04/21 00:43:26;;;;;;;6.57;5.70;;;17.10;56.30;;;;;;4991981;28;20030;-38
2021/04/21 00:46:07;;;;;;;7.05;6.20;;;17.20;56.20;;;;;;4992224;28;20031;-38
2021/04/21 00:48:54;;;;;;;8.65;5.80;;;17.20;56.30;;;;;;4994185;28;20189;-38
2021/04/21 00:51:38;;;;;;;7.63;6.10;;;17.40;56.30;;;;;;4995715;28;20030;-38
2021/04/21 00:54:22;;;;;;;7.43;5.03;;;17.90;56.70;;;;;;4977816;28;20374;-38
2021/04/21 00:57:13;;;;;;;6.70;5.72;;;17.20;56.30;;;;;;4977912;28;20493;-39
2021/04/21 00:59:54;;;;;;;6.95;5.47;;;17.30;56.30;;;;;;4995209;28;20026;-38
2021/04/21 01:02:24;;;;;;;8.02;5.40;;;17.30;56.30;;;;;;4995516;28;20110;-38
2021/04/21 01:04:51;;;;;;;6.95;5.72;;;17.00;56.30;;;;;;4995492;28;20101;-38
2021/04/21 01:07:18;;;;;;;6.10;4.95;;;17.20;56.30;;;;;;4995400;28;20381;-38
2021/04/21 01:09:46;;;;;;;6.78;5.25;;;17.20;56.30;;;;;;4995342;28;20101;-39
2021/04/21 01:12:15;;;;;;;6.90;5.43;;;17.10;56.30;;;;;;4995392;28;20374;-38
2021/04/21 01:14:44;;;;;;;8.10;6.38;;;17.30;56.50;;;;;;4995061;28;20133;-38
2021/04/21 01:17:14;;;;;;;6.40;5.35;;;17.10;56.30;;;;;;4995013;28;20082;-38
2021/04/21 01:20:04;;;;;;;9.85;6.00;;;17.10;56.40;;;;;;4995168;28;20040;-38
2021/04/21 01:22:42;;;;;;;7.35;5.95;;;17.30;56.50;;;;;;4995205;28;20019;-38
2021/04/21 01:25:17;;;;;;;7.18;5.28;;;17.30;56.00;;;;;;4994919;28;20034;-38
2021/04/21 01:27:45;;;;;;;6.35;4.80;;;17.30;56.40;;;;;;4994841;28;20027;-38
2021/04/21 01:30:14;;;;;;;7.07;5.28;;;17.10;56.40;;;;;;4994969;28;20018;-38
2021/04/21 01:32:44;;;;;;;5.82;5.22;;;17.30;56.50;;;;;;4994743;28;20101;-38
2021/04/21 01:35:12;;;;;;;5.65;5.15;;;17.10;56.40;;;;;;4995015;28;20027;-39
2021/04/21 01:37:39;;;;;;;6.40;5.32;;;17.30;56.50;;;;;;4994815;28;20026;-38
2021/04/21 01:40:15;;;;;;;7.10;5.43;;;17.10;56.40;;;;;;4994829;28;20441;-38
2021/04/21 01:42:44;;;;;;;8.02;5.30;;;17.20;56.30;;;;;;4994650;28;20528;-38
2021/04/21 01:45:12;;;;;;;6.47;5.43;;;17.10;56.50;;;;;;4994790;28;20026;-39
2021/04/21 01:47:40;;;;;;;7.40;5.45;;;17.20;56.50;;;;;;4994716;28;20118;-38
2021/04/21 01:50:07;;;;;;;5.63;4.68;;;17.00;56.40;;;;;;4994644;28;20030;-38
2021/04/21 01:53:00;;;;;;;5.88;5.20;;;17.20;82.50;;;;;;4994250;28;20371;-38
2021/04/21 01:55:44;;;;;;;6.53;4.88;;;17.20;56.40;;;;;;4976845;28;20498;-38
2021/04/21 01:58:17;;;;;;;5.85;5.00;;;17.20;56.40;;;;;;4994554;28;20034;-38
2021/04/21 02:00:54;;;;;;;6.30;5.55;;;17.10;56.40;;;;;;4993493;28;20178;-38
2021/04/21 02:03:29;;;;;;;6.35;5.30;;;17.30;56.60;;;;;;4994470;28;20433;-38
2021/04/21 02:06:32;;;;;;;6.03;5.05;;;17.60;56.70;;;;;;4994264;28;20054;-38
2021/04/21 02:09:15;;;;;;;5.63;4.78;;;17.10;56.30;;;;;;4994019;28;20030;-38
2021/04/21 02:12:13;;;;;;;6.78;5.22;;;17.10;56.40;;;;;;4994267;28;20034;-38
2021/04/21 02:14:51;;;;;;;5.90;4.75;;;17.10;56.30;;;;;;4993998;28;20084;-38
2021/04/21 02:17:36;;;;;;;7.40;5.00;;;17.00;56.50;;;;;;4994193;28;20076;-39
2021/04/21 02:20:15;;;;;;;6.50;5.13;;;17.00;56.30;;;;;;4994064;28;20071;-38
2021/04/21 02:22:49;;;;;;;10.05;5.43;;;17.00;56.50;;;;;;4994084;28;20109;-38
2021/04/21 02:25:33;;;;;;;5.68;4.68;;;17.10;56.40;;;;;;4993830;28;20034;-38
2021/04/21 02:28:27;;;;;;;5.63;4.38;;;17.10;56.40;;;;;;4994025;28;20026;-38
2021/04/21 02:31:05;;;;;;;10.13;5.15;;;17.10;56.40;;;;;;4993571;28;20515;-38
2021/04/21 02:33:39;;;;;;;6.15;5.05;;;17.10;56.40;;;;;;4993916;28;20023;-38
2021/04/21 02:36:16;;;;;;;5.43;4.53;;;17.10;56.40;;;;;;4993904;28;20437;-38
2021/04/21 02:39:11;;;;;;;5.57;4.32;;;16.90;56.60;;;;;;4993824;28;20410;-38
2021/04/21 02:42:16;;;;;;;5.38;4.88;;;17.00;56.60;;;;;;4993527;28;20593;-38
2021/04/21 02:44:54;;;;;;;4.90;4.40;;;17.00;56.40;;;;;;4975929;28;20030;-38
2021/04/21 02:47:37;;;;;;;7.80;4.82;;;17.00;56.40;;;;;;4993335;28;20026;-38
2021/04/21 02:50:35;;;;;;;4.95;4.05;;;16.90;56.70;;;;;;4993630;28;20026;-38
2021/04/21 02:53:20;;;;;;;5.55;4.32;;;17.00;56.40;;;;;;4993447;28;20034;-38
2021/04/21 02:55:54;;;;;;;5.75;4.72;;;17.00;56.40;;;;;;4993274;28;20034;-38
2021/04/21 02:59:10;;;;;;;5.05;4.55;;;17.00;56.40;;;;;;4993410;28;20026;-38
2021/04/21 03:02:01;;;;;;;7.03;4.50;;;17.00;56.50;;;;;;4914087;29;20047;-38
2021/04/21 03:05:01;;;;;;;5.57;4.70;;;16.80;56.80;;;;;;4913827;29;20055;-38
2021/04/21 03:07:35;;;;;;;4.68;4.05;;;17.00;56.50;;;;;;4989208;28;20092;-38
2021/04/21 03:10:06;;;;;;;6.20;4.88;;;16.90;56.80;;;;;;4993303;28;20026;-38
2021/04/21 03:12:33;;;;;;;7.53;3.97;;;16.90;56.80;;;;;;4993048;28;20062;-38
2021/04/21 03:15:04;;;;;;;5.53;4.18;;;16.80;56.80;;;;;;4992992;28;20050;-39
2021/04/21 03:17:31;;;;;;;5.25;3.90;;;17.00;56.90;;;;;;4992949;28;20026;-38
2021/04/21 03:20:04;;;;;;;6.35;4.78;;;16.80;56.80;;;;;;4993164;28;20490;-38
2021/04/21 03:22:31;;;;;;;6.93;4.82;;;17.60;57.30;;;;;;4992887;28;20027;-39
2021/04/21 03:25:21;;;;;;;5.38;4.28;;;16.80;56.90;;;;;;4993136;28;20049;-38
2021/04/21 03:27:51;;;;;;;6.00;4.70;;;16.90;57.10;;;;;;4993102;28;20022;-40
2021/04/21 03:30:18;;;;;;;;;;;16.80;56.90;;;;;;4993232;28;20023;-38
2021/04/21 03:32:48;;;;;;;4.85;3.80;;;16.90;84.30;;;;;;4992981;28;19909;-38
2021/04/21 03:35:15;;;;;;;5.35;4.32;;;16.90;57.10;;;;;;4993050;28;20025;-38
2021/04/21 03:38:02;;;;;;;4.93;4.07;;;16.80;57.00;;;;;;4992699;28;20474;-38
2021/04/21 03:40:28;;;;;;;5.38;4.55;;;16.90;56.60;;;;;;4992922;28;20034;-38
2021/04/21 03:42:55;;;;;;;4.18;3.60;;;16.90;57.20;;;;;;4992580;28;20025;-38
2021/04/21 03:45:21;;;;;;;6.32;4.40;;;16.80;57.30;;;;;;4992897;28;20088;-38
2021/04/21 03:47:47;;;;;;;4.03;3.63;;;17.10;57.40;;;;;;4975712;28;20039;-38
2021/04/21 03:50:14;;;;;;;4.15;3.75;;;16.80;57.30;;;;;;4992765;28;20169;-38
2021/04/21 03:52:45;;;;;;;5.63;4.28;;;16.90;57.50;;;;;;4992702;28;20087;-38
2021/04/21 03:55:12;;;;;;;4.78;4.10;;;16.80;57.60;;;;;;4992758;28;20029;-38
2021/04/21 03:57:43;;;;;;;4.30;3.80;;;16.80;57.50;;;;;;4992714;28;20045;-38
2021/04/21 04:00:14;;;;;;;4.18;3.78;;;17.10;57.90;;;;;;4975020;28;20042;-38
2021/04/21 04:02:44;;;;;;;4.70;3.72;;;16.80;57.50;;;;;;4992768;28;20030;-38
2021/04/21 04:05:13;;;;;;;5.70;3.97;;;16.80;57.80;;;;;;4992453;28;20384;-38
2021/04/21 04:07:41;;;;;;;4.53;4.10;;;16.80;57.70;;;;;;4992643;28;20089;-38
2021/04/21 04:10:12;;;;;;;5.00;3.85;;;16.70;57.90;;;;;;4992646;28;20018;-38
2021/04/21 04:12:41;;;;;;;4.30;3.75;;;16.80;58.00;;;;;;4992654;28;20100;-38
2021/04/21 04:15:09;;;;;;;5.20;4.00;;;16.80;58.10;;;;;;4992154;28;20042;-38
2021/04/21 04:17:37;;;;;;;4.63;3.67;;;16.80;58.10;;;;;;4992224;28;20022;-38
2021/04/21 04:20:04;;;;;;;6.20;4.57;;;16.70;58.20;;;;;;4992456;28;20066;-38
2021/04/21 04:22:33;;;;;;;5.30;3.88;;;16.80;57.90;;;;;;4992655;28;20134;-38
2021/04/21 04:25:01;;;;;;;5.57;3.60;;;16.90;58.80;;;;;;4996020;28;20023;-38
2021/04/21 04:27:28;;;;;;;5.95;3.95;;;16.80;58.80;;;;;;4995967;28;20062;-38
2021/04/21 04:29:58;;;;;;;4.35;3.83;;;16.80;59.00;;;;;;4996078;28;20053;-38
2021/04/21 04:32:25;;;;;;;5.50;3.40;;;17.20;59.50;;;;;;4995884;28;20072;-38
2021/04/21 04:34:55;;;;;;;4.22;3.83;;;17.20;59.60;;;;;;4995967;28;20026;-38
2021/04/21 04:37:22;;;;;;;4.07;3.67;;;16.70;59.80;;;;;;4995680;28;20512;-39
2021/04/21 04:39:48;;;;;;;4.63;3.65;;;16.80;60.10;;;;;;4995502;28;20509;-38
2021/04/21 04:42:14;;;;;;;3.72;3.28;;;16.80;60.20;;;;;;4995906;28;20117;-38
2021/04/21 04:44:42;;;;;;;5.47;4.22;;;16.50;60.30;;;;;;4995866;28;20018;-38
2021/04/21 04:47:11;;;;;;;4.32;3.92;;;16.80;61.50;;;;;;4995753;28;20038;-39
2021/04/21 04:49:45;;;;;;;3.47;3.17;;;16.80;62.40;;;;;;4995585;28;20049;-43
2021/04/21 04:52:12;;;;;;;4.60;3.83;;;16.80;90.80;;;;;;4995611;28;20382;-38
2021/04/21 04:54:39;;;;;;;5.03;3.40;;;17.40;73.80;;;;;;4995293;28;20620;-38
2021/04/21 04:57:06;;;;;;;3.88;3.58;;;17.00;72.30;;;;;;4995630;28;20023;-38
2021/04/21 04:59:33;;;;;;;3.78;3.30;;;16.60;61.20;;;;;;4995394;28;20022;-38
2021/04/21 05:02:00;;;;;;;4.95;3.50;;;16.80;60.70;;;;;;4995186;28;20034;-40
2021/04/21 05:04:46;;;;;;;4.35;3.38;;;16.70;60.00;;;;;;4995458;28;20037;-38
2021/04/21 05:07:14;;;;;;;3.55;3.15;;;16.70;59.50;;;;;;4994765;28;20441;-38
2021/04/21 05:09:42;;;;;;;4.53;3.47;;;16.70;59.40;;;;;;4995166;28;20481;-38
2021/04/21 05:12:12;;;;;;;4.75;3.70;;;16.70;59.40;;;;;;4995402;28;20030;-38
2021/04/21 05:14:40;;;;;;;4.28;3.55;;;16.70;59.60;;;;;;4994916;28;20346;-38
2021/04/21 05:17:17;;;;;;;4.35;3.72;;;16.50;59.50;;;;;;4995265;28;20109;-38
2021/04/21 05:20:08;;;;;;;6.38;3.80;;;16.60;56.60;;;;;;4994823;28;20062;-38
2021/04/21 05:22:59;;;;;;;;;;;16.60;56.80;;;;;;4995340;28;20030;-38
2021/04/21 05:26:10;;;;;;;5.03;3.55;;;16.60;56.70;;;;;;4964679;28;19905;-38
2021/04/21 05:29:15;;;;;;;4.80;3.95;;;16.60;56.80;;;;;;4995059;28;20061;-39
2021/04/21 05:32:24;;;;;;;5.65;4.20;;;16.50;56.80;;;;;;4957650;28;20062;-38
2021/04/21 05:35:23;;;;;;;6.43;3.55;;;16.70;56.90;;;;;;4994798;28;20030;-38
2021/04/21 05:38:13;;;;;;;6.18;3.67;;;16.60;57.00;;;;;;4994895;28;20137;-38
2021/04/21 05:41:06;;;;;;;5.18;4.03;;;15.20;58.00;;;;;;4994478;28;20069;-39
2021/04/21 05:43:50;;;;;;;5.05;3.97;;;16.70;70.20;;;;;;4994933;28;20114;-39
2021/04/21 05:46:47;;;;;;;4.80;4.00;;;16.60;56.90;;;;;;4994380;28;20037;-38
2021/04/21 05:49:49;;;;;;;7.22;5.03;;;16.60;57.00;;;;;;4994357;28;20485;-38
2021/04/21 05:52:57;;;;;;;4.97;4.20;;;16.70;58.30;;;;;;4994443;28;20018;-38
2021/04/21 05:55:32;;;;;;;7.85;4.82;;;16.60;58.50;;;;;;4994333;28;20030;-38
2021/04/21 05:58:12;;;;;;;6.38;4.45;;;16.70;78.30;;;;;;4994137;28;20458;-38
2021/04/21 06:00:54;;;;;;;;;;;16.70;79.80;;;;;;4994800;28;20081;-38
2021/04/21 06:03:21;;;;;;;6.60;4.15;;;16.80;77.80;;;;;;4994086;28;19912;-39
2021/04/21 06:05:47;;;;;;;7.05;4.60;;;16.90;65.10;;;;;;4976579;28;20215;-38
2021/04/21 06:08:13;;;;;;;6.07;4.30;;;16.60;62.30;;;;;;4994301;28;20129;-38
2021/04/21 06:10:40;;;;;;;7.93;3.83;;;16.60;62.20;;;;;;4993896;28;20023;-38
2021/04/21 06:13:06;;;;;;;7.50;4.35;;;16.70;63.50;;;;;;4994140;28;20031;-38
2021/04/21 06:15:35;;;;;;;7.63;4.82;;;16.30;71.00;;;;;;4993753;28;20054;-38
2021/04/21 06:18:04;;;;;;;5.45;3.67;;;16.80;62.60;;;;;;4994134;28;20033;-38
2021/04/21 06:20:41;;;;;;;6.40;4.28;;;16.70;74.40;;;;;;4993677;28;20113;-38
2021/04/21 06:23:15;;;;;;;7.57;4.70;;;16.70;65.00;;;;;;4994061;28;20117;-38
2021/04/21 06:26:04;;;;;;;8.35;5.43;;;16.60;66.30;;;;;;4993708;28;20101;-37
2021/04/21 06:28:30;;;;;;;12.77;6.83;;;17.10;67.60;;;;;;4993214;28;20496;-37
2021/04/21 06:31:11;;;;;;;7.55;5.43;;;17.10;66.90;;;;;;4993655;28;20026;-37
2021/04/21 06:33:43;;;;;;;8.73;5.50;;;16.90;62.60;;;;;;4993894;28;20026;-38
2021/04/21 06:36:12;;;;;;;6.97;4.10;;;16.90;67.10;;;;;;4993306;28;20026;-38
2021/04/21 06:38:39;;;;;;;4.68;3.80;;;17.20;68.80;;;;;;4993634;28;20049;-38
2021/04/21 06:41:05;;;;;;;9.02;3.72;;;16.90;68.60;;;;;;4992197;28;20501;-38
2021/04/21 06:43:37;;;;;;;6.80;4.43;;;16.90;68.60;;;;;;4993549;28;20033;-38
2021/04/21 06:46:07;;;;;;;9.00;5.40;;;16.90;64.80;;;;;;4992959;28;20077;-38
2021/04/21 06:48:36;;;;;;;11.95;5.30;;;16.80;68.50;;;;;;4993236;28;20027;-38
2021/04/21 06:51:08;;;;;;;11.68;5.53;;;16.90;67.20;;;;;;4993098;28;20520;-38
2021/04/21 06:53:34;;;;;;;11.70;5.57;;;16.90;67.60;;;;;;4993213;28;20050;-38
2021/04/21 06:56:00;;;;;;;7.00;5.07;;;16.90;69.50;;;;;;4993464;28;20031;-38
2021/04/21 06:58:30;;;;;;;8.88;6.07;;;16.90;66.80;;;;;;4993321;28;20015;-38
2021/04/21 07:01:10;;;;;;;11.32;5.70;;;16.90;67.10;;;;;;4993270;28;20093;-38
2021/04/21 07:03:37;;;;;;;8.60;6.05;;;16.90;67.20;;;;;;4993287;28;20073;-38
2021/04/21 07:06:03;;;;;;;12.27;6.72;;;17.20;66.40;;;;;;4993275;28;20030;-38
2021/04/21 07:08:34;;;;;;;11.45;6.40;;;16.90;66.30;;;;;;4993132;28;20430;-38
2021/04/21 07:11:02;;;;;;;10.23;6.72;;;17.00;67.70;;;;;;4993126;28;20065;-38
2021/04/21 07:13:40;;;;;;;14.10;7.03;;;16.90;67.30;;;;;;4993026;28;20022;-38
2021/04/21 07:16:09;;;;;;;10.63;5.95;;;16.90;63.50;;;;;;4992006;28;20118;-38
2021/04/21 07:18:42;;;;;;;10.40;6.45;;;17.00;67.50;;;;;;4991964;28;20065;-41
2021/04/21 07:21:10;;;;;;;9.75;6.00;;;16.70;63.00;;;;;;4974723;28;20145;-39
2021/04/21 07:23:38;;;;;;;10.15;6.22;;;17.10;67.00;;;;;;4992153;28;20034;-39
2021/04/21 07:26:05;;;;;;;9.88;6.30;;;17.00;66.30;;;;;;4991996;28;20105;-38
2021/04/21 07:28:35;;;;;;;10.48;5.70;;;16.70;67.00;;;;;;4991842;28;20072;-38
2021/04/21 07:31:13;;;;;;;7.63;5.95;;;17.50;66.90;;;;;;4991937;28;20481;-38
2021/04/21 07:33:42;;;;;;;8.43;5.88;;;17.00;62.20;;;;;;4991791;28;20429;-37
2021/04/21 07:36:13;;;;;;;9.48;5.50;;;17.20;66.40;;;;;;4991954;28;20080;-38
2021/04/21 07:38:49;;;;;;;8.20;5.78;;;17.00;60.50;;;;;;4991803;28;20643;-38
2021/04/21 07:41:36;;;;;;;11.02;5.78;;;17.10;63.80;;;;;;4991979;28;20046;-37
2021/04/21 07:44:04;;;;;;;7.03;4.68;;;17.10;58.50;;;;;;4992006;28;20046;-38
2021/04/21 07:46:29;;;;;;;8.05;5.18;;;17.40;65.00;;;;;;4991629;28;20034;-38
2021/04/21 07:48:55;;;;;;;8.15;4.75;;;17.30;66.40;;;;;;4991598;28;20019;-37
2021/04/21 07:51:21;;;;;;;6.82;4.63;;;17.50;64.20;;;;;;4991749;28;20065;-37
2021/04/21 07:53:52;;;;;;;5.43;4.50;;;17.30;63.60;;;;;;4991875;28;20058;-38
2021/04/21 07:56:20;;;;;;;5.78;4.32;;;17.20;57.10;;;;;;4992003;28;20023;-38
2021/04/21 07:58:46;;;;;;;10.00;4.68;;;;;;;;;;4994259;28;20022;-38
2021/04/21 08:01:12;;;;;;;11.43;4.70;;;17.30;70.70;;;;;;4994959;28;20081;-38
2021/04/21 08:03:39;;;;;;;9.63;4.43;;;17.20;57.50;;;;;;4995133;28;20019;-38
2021/04/21 08:06:05;;;;;;;6.28;4.43;;;17.30;57.90;;;;;;4995263;28;20385;-38
2021/04/21 08:08:35;;;;;;;8.68;4.30;;;17.30;55.60;;;;;;4994877;28;20022;-37
2021/04/21 08:11:03;;;;;;;6.13;4.00;;;17.40;56.20;;;;;;4995132;28;20022;-38
2021/04/21 08:13:50;;;;;;;7.38;4.28;;;17.90;56.60;;;;;;4995435;28;20044;-38
2021/04/21 08:16:30;;;;;;;5.80;4.05;;;17.30;56.70;;;;;;4969231;28;763401;-38
2021/04/21 08:18:57;;;;;;;;;;;18.00;57.50;;;;;;4996674;28;20077;-38
2021/04/21 08:21:42;;;;;;;6.57;4.38;;;17.50;57.20;;;;;;4996155;28;19921;-38
2021/04/21 08:24:15;;;;;;;7.47;3.97;;;17.50;57.60;;;;;;4996055;28;20485;-38
2021/04/21 08:26:45;;;;;;;5.50;3.83;;;17.50;55.40;;;;;;4995879;28;20031;-39
2021/04/21 08:29:13;;;;;;;5.68;3.50;;;17.60;57.80;;;;;;4995917;28;20042;-38
2021/04/21 08:31:42;;;;;;;5.00;3.55;;;17.90;58.00;;;;;;4995703;28;20486;-38
2021/04/21 08:34:08;;;;;;;4.53;3.22;;;17.60;58.20;;;;;;4995539;28;20037;-38
2021/04/21 08:36:33;;;;;;;4.50;3.42;;;17.60;57.80;;;;;;4996090;28;20019;-38
2021/04/21 08:38:59;;;;;;;4.40;3.38;;;17.70;57.70;;;;;;4995811;28;20026;-38
2021/04/21 08:41:27;;;;;;;4.30;3.15;;;17.70;57.70;;;;;;4995391;28;20030;-38
2021/04/21 08:43:54;;;;;;;4.47;3.35;;;17.70;57.90;;;;;;4995688;28;20092;-38
2021/04/21 08:46:21;;;;;;;4.13;3.30;;;17.90;57.70;;;;;;4995742;28;20105;-38
2021/04/21 08:48:47;;;;;;;5.88;3.60;;;17.80;57.70;;;;;;4995457;28;20105;-38
2021/04/21 08:51:16;;;;;;;4.78;2.80;;;17.90;57.50;;;;;;4995224;28;20473;-38
2021/04/21 08:53:46;;;;;;;4.47;3.40;;;18.50;57.70;;;;;;4995501;28;20026;-38
2021/04/21 08:56:19;;;;;;;3.42;2.67;;;18.10;57.30;;;;;;4995461;28;20063;-38
2021/04/21 08:58:46;;;;;;;3.65;2.78;;;18.00;54.70;;;;;;4995421;28;20473;-38
2021/04/21 09:01:13;;;;;;;5.13;2.90;;;18.00;57.00;;;;;;4995518;28;20061;-38
2021/04/21 09:03:43;;;;;;;6.15;2.58;;;18.00;57.10;;;;;;4995566;28;20026;-38
2021/04/21 09:06:09;;;;;;;2.95;2.28;;;18.00;54.50;;;;;;4995649;28;20038;-38
2021/04/21 09:08:38;;;;;;;4.13;2.03;;;18.10;57.00;;;;;;4994785;28;20023;-38
2021/04/21 09:11:04;;;;;;;2.50;2.10;;;18.30;57.20;;;;;;4995771;28;20057;-38
2021/04/21 09:13:29;;;;;;;2.20;2.00;;;18.20;56.90;;;;;;4995234;28;20493;-38
2021/04/21 09:15:57;;;;;;;3.63;2.42;;;18.40;57.00;;;;;;4994966;28;20039;-38
2021/04/21 09:18:34;;;;;;;3.88;2.45;;;18.30;56.80;;;;;;4994951;28;20064;-39
2021/04/21 09:21:01;;;;;;;3.47;2.35;;;18.30;54.10;;;;;;4994895;28;20079;-38
2021/04/21 09:23:41;;;;;;;3.05;2.35;;;18.40;56.30;;;;;;4994883;28;20378;-38
2021/04/21 09:26:13;;;;;;;3.17;2.20;;;18.50;56.50;;;;;;4995135;28;20031;-38
2021/04/21 09:28:41;;;;;;;3.58;2.30;;;18.30;56.50;;;;;;4995210;28;20092;-38
2021/04/21 09:31:16;;;;;;;4.70;2.55;;;18.60;56.60;;;;;;4995092;28;20253;-38
2021/04/21 09:33:42;;;;;;;2.78;2.47;;;18.30;54.10;;;;;;4995077;28;20030;-38
2021/04/21 09:36:08;;;;;;;2.65;2.35;;;18.20;56.20;;;;;;4994945;28;20022;-38
2021/04/21 09:38:34;;;;;;;3.40;2.65;;;18.30;56.30;;;;;;4994905;28;20363;-38
2021/04/21 09:41:02;;;;;;;4.25;2.40;;;18.60;56.40;;;;;;4994783;28;20120;-38
2021/04/21 09:43:34;;;;;;;3.25;2.35;;;18.30;56.00;;;;;;4994815;28;20026;-38
2021/04/21 09:46:01;;;;;;;4.03;2.53;;;18.40;56.40;;;;;;4994766;28;20366;-38
2021/04/21 09:48:33;;;;;;;4.35;2.65;;;18.50;56.40;;;;;;4994163;28;20049;-39
2021/04/21 09:51:05;;;;;;;3.47;2.10;;;18.40;56.10;;;;;;4994615;28;20026;-38
2021/04/21 09:53:37;;;;;;;2.83;2.20;;;18.50;56.40;;;;;;4994490;28;20035;-38
2021/04/21 09:56:17;;;;;;;3.83;2.60;;;18.50;53.50;;;;;;4994197;28;20026;-38
2021/04/21 09:58:42;;;;;;;2.70;2.50;;;18.50;53.50;;;;;;4993202;28;20030;-38
2021/04/21 10:01:19;;;;;;;4.15;2.70;;;18.50;55.50;;;;;;4993106;28;20066;-38
2021/04/21 10:03:45;;;;;;;4.05;3.17;;;18.50;55.90;;;;;;4994431;28;20030;-38
2021/04/21 10:06:21;;;;;;;3.45;2.70;;;19.20;55.50;;;;;;4994343;28;20472;-38
2021/04/21 10:08:47;;;;;;;4.80;2.70;;;19.40;56.00;;;;;;4994016;28;20030;-38
2021/04/21 10:11:13;;;;;;;3.65;2.75;;;18.60;55.60;;;;;;4994045;28;20026;-38
2021/04/21 10:13:43;;;;;;;4.75;3.03;;;18.50;55.10;;;;;;4994213;28;20030;-38
2021/04/21 10:16:10;;;;;;;3.88;2.90;;;18.50;55.10;;;;;;4993716;28;20089;-38
2021/04/21 10:18:36;;;;;;;4.38;3.08;;;18.80;55.30;;;;;;4994093;28;20085;-38
2021/04/21 10:21:03;;;;;;;5.40;3.25;;;18.60;54.90;;;;;;4993517;28;20354;-38
2021/04/21 10:23:29;;;;;;;4.07;2.97;;;18.50;54.90;;;;;;4993983;28;20085;-38
2021/04/21 10:25:55;;;;;;;3.53;2.95;;;18.50;55.10;;;;;;4993958;28;20030;-38
2021/04/21 10:28:22;;;;;;;4.88;3.47;;;18.50;55.30;;;;;;4993651;28;20026;-38
2021/04/21 10:30:48;;;;;;;4.32;2.88;;;18.50;55.10;;;;;;4993567;28;20505;-38
2021/04/21 10:33:14;;;;;;;3.28;2.97;;;19.10;55.40;;;;;;4993638;28;20031;-38
2021/04/21 10:35:40;;;;;;;3.22;2.95;;;19.00;55.20;;;;;;4993531;28;20120;-38
2021/04/21 10:38:06;;;;;;;3.53;2.60;;;18.50;54.80;;;;;;4993446;28;20018;-38
2021/04/21 10:40:32;;;;;;;5.50;3.03;;;18.70;55.30;;;;;;4993610;28;20381;-38
2021/04/21 10:43:04;;;;;;;5.45;3.45;;;18.50;55.20;;;;;;4993652;28;20026;-38
2021/04/21 10:45:30;;;;;;;4.63;3.33;;;18.60;55.30;;;;;;4975756;28;20027;-39
2021/04/21 10:47:58;;;;;;;5.25;3.15;;;18.70;55.30;;;;;;4993287;28;20026;-38
2021/04/21 10:50:48;;;;;;;5.38;3.60;;;18.60;55.20;;;;;;4993201;28;20082;-38
2021/04/21 10:53:29;;;;;;;5.68;2.80;;;18.50;55.30;;;;;;4993599;28;20134;-38
2021/04/21 10:55:55;;;;;;;4.72;3.20;;;18.40;55.30;;;;;;4993128;28;20496;-38
2021/04/21 10:58:21;;;;;;;4.93;3.40;;;18.40;54.90;;;;;;4993402;28;20018;-37
2021/04/21 11:00:48;;;;;;;5.30;3.33;;;18.40;55.30;;;;;;4993257;28;20034;-38
2021/04/21 11:03:20;;;;;;;3.75;3.08;;;18.40;55.40;;;;;;4976211;28;20031;-38
2021/04/21 11:05:58;;;;;;;5.00;3.22;;;18.30;55.70;;;;;;4993245;28;20105;-38
2021/04/21 11:08:50;;;;;;;4.43;3.42;;;18.30;55.40;;;;;;4993254;28;20101;-38
2021/04/21 11:11:16;;;;;;;3.92;3.08;;;18.30;55.20;;;;;;4992855;28;20038;-38
2021/04/21 11:13:43;;;;;;;4.28;3.88;;;18.80;54.80;;;;;;4993151;28;20022;-38
2021/04/21 11:16:11;;;;;;;4.55;3.45;;;18.20;55.00;;;;;;4992795;28;20416;-38
2021/04/21 11:18:39;;;;;;;3.50;3.20;;;18.20;55.30;;;;;;4993118;28;20038;-38
2021/04/21 11:21:09;;;;;;;5.95;3.53;;;18.20;55.30;;;;;;4992880;28;20042;-38
2021/04/21 11:24:07;;;;;;;4.07;3.50;;;18.30;53.60;;;;;;4992947;28;20025;-38
2021/04/21 11:26:34;;;;;;;4.07;3.08;;;18.10;53.60;;;;;;4992954;28;20030;-38
2021/04/21 11:29:14;;;;;;;4.05;3.55;;;18.20;54.70;;;;;;4992646;28;20022;-38
2021/04/21 11:31:47;;;;;;;4.27;3.10;;;18.10;55.70;;;;;;4992860;28;20420;-38
2021/04/21 11:34:16;;;;;;;6.38;3.72;;;18.10;54.00;;;;;;4992845;28;20057;-38
2021/04/21 11:37:00;;;;;;;4.53;3.20;;;18.10;55.30;;;;;;4992813;28;20034;-39
2021/04/21 11:39:44;;;;;;;3.50;3.17;;;18.10;54.00;;;;;;4992688;28;20030;-38
2021/04/21 11:42:39;;;;;;;3.60;2.80;;;18.20;54.30;;;;;;4992629;28;20113;-38
2021/04/21 11:45:25;;;;;;;4.18;3.42;;;18.30;54.50;;;;;;4992805;28;20027;-38
2021/04/21 11:48:00;;;;;;;5.95;3.72;;;18.30;56.30;;;;;;4992673;28;20477;-38
2021/04/21 11:50:29;;;;;;;3.78;2.95;;;18.40;56.00;;;;;;4992592;28;20034;-37
2021/04/21 11:53:07;;;;;;;3.88;2.95;;;18.50;56.10;;;;;;4992294;28;20026;-38
2021/04/21 11:55:34;;;;;;;5.35;3.40;;;18.50;54.00;;;;;;4992421;28;20559;-38
2021/04/21 11:58:06;;;;;;;3.60;2.72;;;18.50;55.50;;;;;;4992773;28;20019;-38
2021/04/21 12:00:38;;;;;;;3.13;2.88;;;19.20;55.90;;;;;;4992595;28;20045;-38
2021/04/21 12:03:05;;;;;;;4.20;2.88;;;18.90;55.60;;;;;;4992587;28;20096;-38
2021/04/21 12:05:34;;;;;;;3.00;2.70;;;18.60;55.10;;;;;;4992443;28;20077;-38
2021/04/21 12:08:02;;;;;;;5.32;2.85;;;18.70;55.30;;;;;;4992513;28;20042;-38
2021/04/21 12:10:34;;;;;;;3.10;2.80;;;18.90;55.60;;;;;;4992147;28;20038;-38
2021/04/21 12:13:36;;;;;;;5.93;2.33;;;18.70;55.30;;;;;;4992186;28;20093;-38
2021/04/21 12:16:09;;;;;;;3.28;2.60;;;18.80;55.10;;;;;;4950924;28;20085;-38
2021/04/21 12:18:48;;;;;;;4.53;2.65;;;18.80;55.00;;;;;;4992396;28;20278;-38
2021/04/21 12:21:17;;;;;;;2.87;2.50;;;18.90;55.20;;;;;;4992156;28;20034;-37
2021/04/21 12:23:56;;;;;;;3.92;2.35;;;19.10;55.50;;;;;;4992018;28;20765;-37
2021/04/21 12:26:34;;;;;;;3.47;2.40;;;18.90;55.20;;;;;;4992065;28;20120;-37
2021/04/21 12:29:04;;;;;;;4.22;2.45;;;19.00;55.90;;;;;;4992112;28;20026;-37
2021/04/21 12:31:31;;;;;;;3.90;2.38;;;18.90;55.90;;;;;;4992295;28;20027;-38
2021/04/21 12:33:59;;;;;;;2.97;2.45;;;19.10;55.90;;;;;;4992416;28;20057;-38
2021/04/21 12:36:27;;;;;;;2.80;2.10;;;19.30;56.20;;;;;;4992061;28;20069;-37
2021/04/21 12:39:22;;;;;;;3.45;2.17;;;19.10;55.90;;;;;;4974602;28;20485;-38
2021/04/21 12:41:54;;;;;;;3.25;2.45;;;19.10;53.10;;;;;;4990203;28;20536;-38
2021/04/21 12:44:31;;;;;;;2.67;2.22;;;19.10;55.10;;;;;;4993579;28;20030;-37
2021/04/21 12:47:10;;;;;;;2.67;2.25;;;19.10;52.90;;;;;;4978206;28;20480;-38
2021/04/21 12:49:43;;;;;;;3.30;2.30;;;19.80;54.90;;;;;;4995657;28;20022;-38
2021/04/21 12:52:15;;;;;;;2.97;1.98;;;19.20;52.80;;;;;;4995507;28;20035;-41
2021/04/21 12:54:48;;;;;;;3.58;2.00;;;19.30;54.70;;;;;;4995763;28;20031;-37
2021/04/21 12:57:16;;;;;;;2.90;2.10;;;19.50;54.90;;;;;;4995339;28;20022;-38
2021/04/21 12:59:44;;;;;;;4.95;2.03;;;19.30;54.60;;;;;;4995569;28;20417;-38
2021/04/21 13:02:18;;;;;;;2.80;2.13;;;19.80;54.70;;;;;;4995451;28;20037;-38
2021/04/21 13:04:47;;;;;;;2.83;2.08;;;19.50;54.70;;;;;;4995510;28;20054;-38
2021/04/21 13:07:22;;;;;;;2.30;2.10;;;19.80;54.80;;;;;;4995543;28;20389;-38
2021/04/21 13:09:49;;;;;;;2.20;2.00;;;19.60;54.90;;;;;;4995181;28;20121;-37
2021/04/21 13:12:22;;;;;;;4.47;2.13;;;19.40;54.40;;;;;;4995345;28;20057;-38
2021/04/21 13:14:50;;;;;;;1.80;1.70;;;19.40;54.60;;;;;;4995137;28;20049;-38
2021/04/21 13:17:16;;;;;;;2.10;1.90;;;19.40;54.40;;;;;;4995262;28;20031;-38
2021/04/21 13:19:55;;;;;;;2.45;1.83;;;19.50;54.50;;;;;;4995201;28;20019;-38